Monday, June 18, 2018, 8:41 PM EDT
Back to Local

KHGR, Hagerstown Regional Airport

Location: Hagerstown, MD, United States Lat: 39.7
Local Time: 8:41 PM EDT ( 0:41 GMT) Lon: -77.733
Time Zone: US/Eastern Elev: 705 ft

Show me the last for .
Show Decoded

2018-06-18 19:53 METAR KHGR 182353Z 23005KT 8SM CLR 32/23 A2989 RMK AO2 SLP123 60052 T03220228
                 10344 20233 56015 =
2018-06-18 18:53 METAR KHGR 182253Z 24007KT 10SM CLR 33/22 A2989 RMK AO2 SLP124 T03330222 =
2018-06-18 17:53 METAR KHGR 182153Z 26007KT 10SM FEW065 34/22 A2991 RMK AO2 SLP132 T03390222 =
2018-06-18 16:53 METAR KHGR 182053Z 20006KT 10SM CLR 33/23 A2993 RMK AO2 SLP138 60052 T03330233
                 58021 =
2018-06-18 15:53 METAR KHGR 181953Z 19005KT 10SM CLR 32/24 A2996 RMK AO2 LTG DSNT SE TSE03 SLP146
                 T03220239 =
2018-06-18 15:20 METAR KHGR 181920Z 17004KT 10SM CLR 30/24 A2997 RMK AO2 LTG DSNT E AND SE TSE03
                 T03000239 =
2018-06-18 14:53 METAR KHGR 181853Z 14009KT 4SM VCTS HZ SCT027 SCT070 BKN110 25/22 A2999 RMK AO2
                 PK WND 32042/1827 WSHFT 1817 LTG DSNT SE RAB21E48 TSB16E48 SLP158 VCTS E MOV SE
                 FEQ LTGCG E P0052 T02500217 =
2018-06-18 14:47 METAR KHGR 181847Z 16010KT 4SM -RA HZ SCT031 BKN042 OVC110 25/21 A2999 RMK AO2
                 PK WND 32042/1827 WSHFT 1817 LTG DSNT NE RAB21 TSB16 VCTS E MOV SE FEQ LTGCG E
                 P0052 =
2018-06-18 14:41 METAR KHGR 181841Z 19007G17KT 1SM +TSRA BKN031 BKN043 OVC070 26/20 A3000 RMK AO2
                 PK WND 32042/1827 WSHFT 1817 LTG DSNT NE RAB21 TSB16 TS OHD MOV E FEQ LTG E
                 P0052 T02560200 =
2018-06-18 14:39 METAR KHGR 181839Z 20007G18KT 3/4SM +TSRA BKN029 BKN043 BKN060 26/19 A3001 RMK
                 AO2 PK WND 32042/1827 WSHFT 1817 LTG DSNT NE RAB21 TSB16 TS OHD MOV E FEQ LTG E
                 P0051 T02560194 =
2018-06-18 14:31 METAR KHGR 181831Z 31015G42KT 1/2SM +TSRA SCT016 BKN043 BKN060 24/20 A3003 RMK
                 AO2 PK WND 32042/1827 WSHFT 1817 LTG DSNT NW RAB21 TSB16 TS OHD MOV E FEQ LTG W
                 AND NW P0037 T02390200 =
2018-06-18 14:24 METAR KHGR 181824Z 32024G31KT 1 3/4SM -TSRA FEW022 SCT043 BKN060 26/21 A3003 RMK
                 AO2 PK WND 32031/1824 LTG DSNT W AND NW RAB21 TSB16 PRESRR TS OHD MOV E FEQ LTG
                 W AND NW P0006 T02610211 =
2018-06-18 14:22 METAR KHGR 181822Z 31020G30KT 5SM -TSRA SCT043 SCT060 BKN110 29/22 A3001 RMK AO2
                 PK WND 30030/1819 LTG DSNT W AND NW RAB21 TSB16 PRESRR TS OHD MOV E FEQ LTG W
                 AND NW P0000 T02890217 =
2018-06-18 14:05 METAR KHGR 181805Z COR 24007KT 10SM VCTS FEW065 34/22 A2999 RMK AO2 LTG DSNT W
                 AND NW VCTS LTG DSNT W AND NW T03390217 =
2018-06-18 13:53 METAR KHGR 181753Z 27007KT 10SM CLR 33/22 A3000 RMK AO2 LTG DSNT NW SLP159
                 T03330222 10339 20244 58020 =
2018-06-18 12:53 METAR KHGR 181653Z 18006KT 10SM CLR 32/23 A3003 RMK AO2 SLP169 T03220228 =
2018-06-18 11:53 METAR KHGR 181553Z VRB04KT 10SM CLR 31/23 A3004 RMK AO2 SLP176 T03060228 =
2018-06-18 10:53 METAR KHGR 181453Z VRB05KT 10SM CLR 29/22 A3006 RMK AO2 SLP180 T02890222 58006 =
2018-06-18 09:53 METAR KHGR 181353Z 20006KT 9SM SCT050 27/22 A3007 RMK AO2 SLP183 T02720217 =
2018-06-18 08:53 METAR KHGR 181253Z 21006KT 9SM SCT060 26/21 A3007 RMK AO2 SLP185 T02560211 =
2018-06-18 07:53 METAR KHGR 181153Z 19004KT 9SM FEW055 24/21 A3007 RMK AO2 SLP187 T02440206 10244
                 20217 50001 =
2018-06-18 06:53 METAR KHGR 181053Z 17003KT 7SM FEW040 23/21 A3008 RMK AO2 SLP188 T02280206 =
2018-06-18 05:53 METAR KHGR 180953Z AUTO 16005KT 7SM SCT060 22/20 A3008 RMK AO2 SLP187 T02220200
                 =
2018-06-18 04:53 METAR KHGR 180853Z AUTO 17004KT 8SM CLR 23/20 A3007 RMK AO2 SLP186 T02280200
                 56004 =
2018-06-18 03:53 METAR KHGR 180753Z AUTO 13004KT 8SM CLR 23/20 A3008 RMK AO2 SLP187 T02280200 =
2018-06-18 02:53 METAR KHGR 180653Z AUTO 11006KT 7SM CLR 23/20 A3007 RMK AO2 SLP186 T02280200 =
2018-06-18 01:53 METAR KHGR 180553Z AUTO 15003KT 9SM CLR 24/21 A3008 RMK AO2 SLP190 T02390206
                 10294 20233 50001 =
2018-06-18 00:53 METAR KHGR 180453Z AUTO 00000KT 10SM CLR 25/20 A3010 RMK AO2 SLP194 T02500200
                 403170217 =
2018-06-17 23:53 METAR KHGR 180353Z AUTO 22003KT 10SM CLR 26/20 A3009 RMK AO2 SLP191 T02610200 =
2018-06-17 22:53 METAR KHGR 180253Z AUTO 18004KT 10SM CLR 26/20 A3008 RMK AO2 SLP189 T02610200
                 53006 =
2018-06-17 21:53 METAR KHGR 180153Z 16004KT 10SM CLR 27/20 A3007 RMK AO2 SLP187 T02720200 =
2018-06-17 20:53 METAR KHGR 180053Z 17005KT 10SM CLR 28/20 A3006 RMK AO2 SLP182 T02780200 =

Support USWX by starting your Amazon purchase here.